Terminal Aerodrome Forecast
Issued by NWS St Louis, MO

Home | Current Version | Previous Version | Text Only | Print | Product List | Glossary On
Versions: 1 2 3 4 5 6 7 8 9 10 11 12 13 14 15 16 17 18 19 20 21 22 23 24 25 26 27 28 29 30 31
407
FTUS43 KLSX 210311 AAA
TAFSTL
TAF AMD
KSTL 210311Z 2103/2206 15011KT P6SM SCT040 OVC080
     FM210500 16008KT 6SM -SHRA OVC060
      TEMPO 2106/2108 3SM SHRA OVC030
     FM210900 VRB04KT P6SM -SHRA BKN020 OVC060
     FM211200 VRB04KT P6SM OVC015
     FM211500 VRB04KT P6SM BKN025
     FM211800 35005KT P6SM SCT030 BKN060
     FM220000 VRB04KT P6SM SKC=

USA.gov is the U.S. government's official web portal to all federal, state and local government web resources and services.